createdAt,value
2023-05-19T00:01:00.248Z,8.27
2023-05-19T00:03:26.977Z,8.18
2023-05-19T00:05:54.355Z,7.93
2023-05-19T00:08:23.471Z,8.11
2023-05-19T00:10:50.335Z,7.89
2023-05-19T00:13:17.046Z,8.08
2023-05-19T00:15:43.704Z,8.06
2023-05-19T00:18:13.790Z,8.08
2023-05-19T00:20:40.456Z,8.10
2023-05-19T00:23:06.957Z,8.20
2023-05-19T00:25:33.403Z,8.08
2023-05-19T00:27:59.918Z,8.04
2023-05-19T00:30:26.783Z,7.93
2023-05-19T00:32:53.736Z,8.05
2023-05-19T00:35:20.334Z,8.08
2023-05-19T00:37:47.042Z,7.62
2023-05-19T00:40:13.555Z,7.94
2023-05-19T00:42:41.175Z,7.98
2023-05-19T00:45:08.116Z,7.43
2023-05-19T00:47:34.929Z,7.50
2023-05-19T00:50:01.414Z,7.51
2023-05-19T00:52:28.337Z,7.30
2023-05-19T00:54:55.730Z,7.32
2023-05-19T00:57:22.439Z,7.19
2023-05-19T00:59:49.030Z,7.22
2023-05-19T01:02:15.769Z,7.35
2023-05-19T01:04:44.776Z,7.29
2023-05-19T01:07:12.501Z,7.30
2023-05-19T01:09:40.631Z,7.17
2023-05-19T01:12:07.774Z,7.15
2023-05-19T01:14:34.270Z,7.60
2023-05-19T01:17:27.573Z,7.48
2023-05-19T01:19:55.043Z,7.25
2023-05-19T01:22:32.295Z,7.27
2023-05-19T01:25:11.041Z,7.55
2023-05-19T01:27:40.462Z,7.18
2023-05-19T01:30:25.555Z,7.22
2023-05-19T01:32:59.129Z,7.42
2023-05-19T01:35:27.100Z,7.65
2023-05-19T01:37:58.776Z,7.58
2023-05-19T01:40:26.070Z,7.59
2023-05-19T01:42:57.321Z,7.61
2023-05-19T01:45:26.018Z,7.65
2023-05-19T01:47:55.967Z,7.81
2023-05-19T01:50:22.952Z,7.70
2023-05-19T01:52:50.017Z,7.71
2023-05-19T01:55:16.743Z,7.96
2023-05-19T01:58:20.603Z,7.75
2023-05-19T02:00:54.301Z,8.05
2023-05-19T02:04:05.581Z,7.95
2023-05-19T02:06:50.312Z,7.82
2023-05-19T02:09:37.604Z,7.65
2023-05-19T02:12:24.047Z,7.92
2023-05-19T02:14:59.952Z,7.90
2023-05-19T02:17:29.017Z,7.76
2023-05-19T02:19:55.874Z,7.74
2023-05-19T02:22:22.281Z,7.77
2023-05-19T02:24:51.536Z,8.01
2023-05-19T02:27:18.578Z,7.87
2023-05-19T02:29:45.100Z,7.82
2023-05-19T02:32:11.722Z,7.84
2023-05-19T02:34:38.290Z,7.82
2023-05-19T02:37:04.850Z,7.62
2023-05-19T02:39:35.130Z,7.83
2023-05-19T02:42:01.608Z,7.90
2023-05-19T02:44:28.051Z,7.70
2023-05-19T02:46:54.544Z,7.93
2023-05-19T02:49:21.003Z,7.84
2023-05-19T02:51:47.436Z,7.78
2023-05-19T02:54:13.907Z,7.71
2023-05-19T02:56:40.658Z,7.81
2023-05-19T02:59:07.195Z,7.78
2023-05-19T03:01:33.721Z,7.86
2023-05-19T03:04:00.534Z,7.70
2023-05-19T03:06:27.194Z,7.75
2023-05-19T03:08:53.634Z,7.41
2023-05-19T03:11:20.128Z,7.56
2023-05-19T03:13:46.639Z,7.41
2023-05-19T03:16:14.003Z,7.51
2023-05-19T03:18:41.616Z,7.74
2023-05-19T03:21:08.065Z,7.56
2023-05-19T03:23:34.534Z,7.50
2023-05-19T03:26:01.222Z,7.56
2023-05-19T03:28:27.695Z,7.55
2023-05-19T03:30:54.340Z,7.74
2023-05-19T03:33:21.101Z,7.63
2023-05-19T03:35:47.643Z,7.80
2023-05-19T03:38:14.179Z,7.76
2023-05-19T03:40:41.374Z,7.74
2023-05-19T03:43:07.952Z,7.91
2023-05-19T03:45:34.536Z,7.80
2023-05-19T03:48:01.132Z,7.80
2023-05-19T03:50:29.002Z,7.69
2023-05-19T03:52:55.495Z,7.78
2023-05-19T03:55:21.993Z,7.83
2023-05-19T03:57:48.809Z,7.74
2023-05-19T04:00:16.581Z,7.67
2023-05-19T04:02:43.177Z,7.88
2023-05-19T04:05:10.724Z,7.89
2023-05-19T04:07:37.317Z,7.91
2023-05-19T04:10:05.329Z,7.94
2023-05-19T04:12:31.947Z,7.92
2023-05-19T04:14:59.133Z,8.08
2023-05-19T04:17:26.471Z,7.98
2023-05-19T04:19:54.125Z,7.99
2023-05-19T04:22:21.433Z,7.95
2023-05-19T04:24:48.642Z,7.89
2023-05-19T04:27:16.060Z,8.05
2023-05-19T04:29:42.558Z,8.05
2023-05-19T04:32:10.604Z,8.11
2023-05-19T04:34:40.343Z,8.32
2023-05-19T04:37:07.609Z,8.22
2023-05-19T04:39:34.040Z,8.44
2023-05-19T04:42:00.466Z,8.46
2023-05-19T04:44:26.920Z,8.04
2023-05-19T04:46:54.405Z,8.45
2023-05-19T04:49:21.151Z,8.58
2023-05-19T04:51:50.129Z,8.62
2023-05-19T04:54:16.552Z,8.72
2023-05-19T04:56:43.637Z,8.82
2023-05-19T04:59:10.495Z,8.96
2023-05-19T05:01:40.374Z,8.95
2023-05-19T05:04:07.319Z,9.17
2023-05-19T05:06:33.845Z,9.15
2023-05-19T05:09:00.648Z,9.04
2023-05-19T05:11:27.432Z,9.25
2023-05-19T05:13:57.799Z,9.42
2023-05-19T05:16:24.619Z,9.56
2023-05-19T05:18:51.523Z,9.74
2023-05-19T05:21:18.274Z,9.69
2023-05-19T05:23:44.992Z,9.59
2023-05-19T05:26:25.053Z,9.51
2023-05-19T05:28:51.527Z,9.49
2023-05-19T05:31:17.989Z,9.66
2023-05-19T05:33:44.819Z,9.43
2023-05-19T05:36:11.351Z,9.45
2023-05-19T05:38:37.846Z,9.58
2023-05-19T05:41:04.493Z,9.83
2023-05-19T05:43:30.987Z,9.92
2023-05-19T05:45:57.544Z,9.92
2023-05-19T05:48:24.407Z,10.08
2023-05-19T05:50:51.957Z,10.25
2023-05-19T05:53:20.296Z,10.32
2023-05-19T05:55:47.737Z,9.90
2023-05-19T05:58:14.922Z,10.33
2023-05-19T06:00:45.372Z,10.20
2023-05-19T06:03:12.128Z,10.20
2023-05-19T06:05:39.144Z,10.14
2023-05-19T06:08:06.195Z,10.35
2023-05-19T06:10:33.337Z,10.74
2023-05-19T06:13:00.032Z,10.83
2023-05-19T06:15:26.664Z,11.02
2023-05-19T06:17:54.478Z,10.77
2023-05-19T06:20:21.290Z,10.73
2023-05-19T06:22:47.754Z,10.98
2023-05-19T06:25:14.251Z,10.92
2023-05-19T06:27:40.723Z,10.97
2023-05-19T06:30:08.638Z,11.03
2023-05-19T06:32:35.283Z,11.09
2023-05-19T06:35:01.783Z,10.87
2023-05-19T06:37:28.359Z,11.24
2023-05-19T06:39:55.008Z,11.29
2023-05-19T06:42:22.657Z,11.50
2023-05-19T06:44:50.165Z,11.65
2023-05-19T06:47:17.833Z,11.76
2023-05-19T06:49:44.990Z,11.66
2023-05-19T06:52:12.183Z,12.00
2023-05-19T06:54:38.781Z,12.12
2023-05-19T06:57:05.577Z,12.15
2023-05-19T06:59:32.101Z,12.14
2023-05-19T07:01:58.632Z,12.34
2023-05-19T07:04:25.251Z,12.27
2023-05-19T07:06:51.714Z,12.21
2023-05-19T07:09:18.282Z,12.32
2023-05-19T07:11:45.165Z,12.55
2023-05-19T07:14:11.617Z,12.47
2023-05-19T07:16:38.122Z,12.79
2023-05-19T07:19:04.633Z,12.90
2023-05-19T07:21:31.100Z,12.85
2023-05-19T07:23:57.587Z,13.08
2023-05-19T07:26:24.053Z,13.12
2023-05-19T07:28:51.807Z,13.08
2023-05-19T07:31:18.349Z,13.30
2023-05-19T07:33:44.976Z,13.57
2023-05-19T07:36:11.523Z,13.49
2023-05-19T07:38:38.161Z,13.74
2023-05-19T07:41:04.776Z,13.98
2023-05-19T07:43:31.619Z,13.93
2023-05-19T07:45:58.212Z,14.03
2023-05-19T07:48:25.829Z,14.19
2023-05-19T07:50:52.980Z,14.34
2023-05-19T07:53:20.306Z,14.42
2023-05-19T07:55:46.892Z,14.67
2023-05-19T07:58:13.689Z,14.51
2023-05-19T08:00:42.965Z,14.24
2023-05-19T08:03:09.997Z,14.46
2023-05-19T08:05:36.683Z,14.57
2023-05-19T08:08:03.973Z,14.72
2023-05-19T08:10:30.731Z,15.04
2023-05-19T08:12:57.364Z,14.87
2023-05-19T08:15:23.875Z,14.95
2023-05-19T08:17:50.390Z,15.03
2023-05-19T08:20:17.056Z,15.29
2023-05-19T08:22:43.554Z,15.49
2023-05-19T08:25:10.264Z,15.54
2023-05-19T08:27:36.689Z,15.53
2023-05-19T08:30:03.340Z,15.70
2023-05-19T08:32:29.912Z,15.97
2023-05-19T08:34:56.433Z,16.17
2023-05-19T08:37:22.898Z,15.76
2023-05-19T08:39:49.373Z,16.13
2023-05-19T08:42:15.990Z,16.35
2023-05-19T08:44:43.992Z,16.50
2023-05-19T08:47:13.795Z,16.36
2023-05-19T08:49:45.590Z,16.52
2023-05-19T08:52:24.441Z,16.44
2023-05-19T08:55:00.910Z,16.33
2023-05-19T08:57:28.270Z,16.47
2023-05-19T08:59:56.383Z,16.43
2023-05-19T09:02:23.591Z,16.35
2023-05-19T09:04:50.385Z,16.44
2023-05-19T09:07:17.145Z,16.52
2023-05-19T09:09:44.025Z,16.65
2023-05-19T09:12:11.395Z,16.32
2023-05-19T09:14:38.470Z,16.57
2023-05-19T09:17:05.874Z,16.52
2023-05-19T09:19:32.618Z,16.34
2023-05-19T09:22:06.229Z,16.19
2023-05-19T09:24:33.995Z,16.13
2023-05-19T09:27:00.631Z,16.06
2023-05-19T09:29:27.196Z,16.14
2023-05-19T09:32:00.401Z,16.30
2023-05-19T09:34:27.599Z,16.05
2023-05-19T09:36:54.336Z,16.16
2023-05-19T09:39:25.102Z,15.99
2023-05-19T09:41:58.576Z,16.36
2023-05-19T09:44:30.269Z,16.27
2023-05-19T09:46:58.347Z,16.38
2023-05-19T09:49:27.205Z,16.32
2023-05-19T09:52:03.996Z,16.70
2023-05-19T09:54:32.242Z,16.66
2023-05-19T09:57:07.100Z,16.71
2023-05-19T09:59:34.942Z,16.63
2023-05-19T10:02:02.731Z,16.21
2023-05-19T10:04:30.380Z,16.39
2023-05-19T10:07:01.328Z,16.60
2023-05-19T10:09:29.382Z,16.58
2023-05-19T10:11:57.570Z,16.45
2023-05-19T10:14:25.880Z,16.62
2023-05-19T10:16:53.923Z,16.89
2023-05-19T10:19:38.867Z,16.99
2023-05-19T10:22:05.383Z,17.19
2023-05-19T10:24:31.823Z,17.02
2023-05-19T10:27:01.424Z,17.14
2023-05-19T10:29:36.460Z,17.18
2023-05-19T10:32:10.405Z,17.21
2023-05-19T10:34:57.748Z,17.17
2023-05-19T10:37:51.365Z,17.26
2023-05-19T10:40:41.098Z,17.28
2023-05-19T10:43:13.273Z,17.11
2023-05-19T10:45:54.637Z,17.12
2023-05-19T10:48:24.203Z,17.03
2023-05-19T10:50:54.958Z,17.00
2023-05-19T10:53:22.608Z,17.03
2023-05-19T10:55:56.101Z,16.86
2023-05-19T10:58:44.255Z,16.92
2023-05-19T11:01:18.755Z,16.77
2023-05-19T11:03:45.997Z,16.64
2023-05-19T11:06:32.490Z,16.81
2023-05-19T11:09:11.510Z,17.01
2023-05-19T11:11:54.644Z,17.11
2023-05-19T11:14:23.261Z,16.95
2023-05-19T11:16:52.191Z,16.88
2023-05-19T11:19:33.255Z,16.85
2023-05-19T11:22:11.292Z,16.84
2023-05-19T11:24:39.908Z,16.62
2023-05-19T11:27:31.801Z,16.54
2023-05-19T11:29:59.464Z,16.69
2023-05-19T11:32:28.626Z,16.50
2023-05-19T11:34:55.986Z,16.64
2023-05-19T11:37:22.662Z,16.44
2023-05-19T11:39:49.837Z,16.45
2023-05-19T11:42:16.485Z,16.67
2023-05-19T11:44:46.262Z,16.74
2023-05-19T11:47:16.823Z,16.81
2023-05-19T11:49:44.783Z,16.69
2023-05-19T11:52:11.732Z,16.71
2023-05-19T11:54:39.244Z,16.55
2023-05-19T11:57:08.213Z,16.64
2023-05-19T11:59:36.645Z,16.57
2023-05-19T12:02:27.496Z,16.75
2023-05-19T12:04:54.907Z,16.73
2023-05-19T12:07:25.934Z,16.71
2023-05-19T12:09:53.072Z,16.51
2023-05-19T12:12:21.075Z,16.21
2023-05-19T12:14:48.717Z,16.42
2023-05-19T12:17:20.286Z,16.58
2023-05-19T12:19:49.163Z,16.69
2023-05-19T12:22:17.376Z,16.99
2023-05-19T12:24:45.139Z,16.90
2023-05-19T12:27:17.276Z,17.11
2023-05-19T12:29:43.733Z,17.06
2023-05-19T12:32:10.525Z,16.69
2023-05-19T12:34:38.314Z,16.60
2023-05-19T12:37:06.049Z,16.84
2023-05-19T12:39:33.657Z,16.44
2023-05-19T12:42:03.755Z,16.77
2023-05-19T12:44:31.406Z,16.64
2023-05-19T12:46:59.521Z,16.96
2023-05-19T12:49:26.165Z,16.85
2023-05-19T12:51:53.893Z,16.79
2023-05-19T12:54:23.557Z,17.09
2023-05-19T12:56:53.296Z,17.06
2023-05-19T12:59:54.852Z,16.94
2023-05-19T13:02:10.618Z,17.11
2023-05-19T13:04:37.265Z,16.90
2023-05-19T13:07:03.929Z,16.91
2023-05-19T13:09:34.910Z,16.89
2023-05-19T13:12:01.455Z,17.03
2023-05-19T13:14:27.977Z,16.82
2023-05-19T13:16:54.525Z,16.96
2023-05-19T13:19:25.331Z,17.00
2023-05-19T13:21:52.407Z,17.03
2023-05-19T13:24:18.943Z,17.10
2023-05-19T13:26:45.725Z,17.15
2023-05-19T13:29:12.214Z,16.79
2023-05-19T13:31:38.849Z,16.97
2023-05-19T13:34:05.447Z,17.22
2023-05-19T13:36:33.237Z,17.17
2023-05-19T13:39:00.751Z,16.83
2023-05-19T13:41:29.250Z,16.74
2023-05-19T13:44:01.541Z,17.10
2023-05-19T13:46:40.710Z,16.53
2023-05-19T13:49:11.009Z,17.07
2023-05-19T13:51:37.623Z,17.01
2023-05-19T13:54:04.569Z,16.99
2023-05-19T13:56:31.643Z,16.95
2023-05-19T13:58:58.174Z,17.07
2023-05-19T14:01:24.724Z,16.78
2023-05-19T14:03:51.523Z,16.95
2023-05-19T14:06:18.212Z,17.10
2023-05-19T14:08:45.290Z,16.92
2023-05-19T14:11:21.641Z,16.86
2023-05-19T14:13:52.524Z,16.85
2023-05-19T14:16:20.392Z,16.81
2023-05-19T14:18:46.955Z,17.02
2023-05-19T14:21:14.030Z,16.75
2023-05-19T14:23:40.708Z,17.09
2023-05-19T14:26:07.264Z,17.16
2023-05-19T14:28:33.788Z,17.21
2023-05-19T14:31:00.408Z,17.05
2023-05-19T14:33:27.097Z,17.16
2023-05-19T14:35:53.718Z,17.04
2023-05-19T14:38:20.220Z,17.07
2023-05-19T14:40:48.396Z,17.16
2023-05-19T14:43:14.893Z,16.91
2023-05-19T14:45:44.014Z,16.96
2023-05-19T14:48:11.923Z,16.98
2023-05-19T14:50:39.190Z,17.05
2023-05-19T14:53:05.732Z,17.03
2023-05-19T14:55:32.265Z,17.00
2023-05-19T14:57:58.840Z,17.00
2023-05-19T15:00:28.290Z,16.88
2023-05-19T15:02:55.019Z,17.06
2023-05-19T15:05:23.971Z,16.69
2023-05-19T15:07:50.930Z,17.03
2023-05-19T15:10:20.402Z,16.90
2023-05-19T15:12:51.310Z,16.87
2023-05-19T15:15:17.873Z,16.96
2023-05-19T15:17:45.904Z,16.97
2023-05-19T15:20:12.567Z,16.87
2023-05-19T15:22:39.066Z,17.05
2023-05-19T15:25:06.058Z,17.05
2023-05-19T15:27:34.191Z,16.91
2023-05-19T15:30:00.873Z,17.01
2023-05-19T15:32:27.532Z,17.01
2023-05-19T15:34:54.113Z,17.15
2023-05-19T15:37:20.604Z,17.29
2023-05-19T15:39:47.140Z,17.35
2023-05-19T15:42:13.606Z,17.36
2023-05-19T15:44:40.120Z,17.40
2023-05-19T15:47:06.614Z,17.21
2023-05-19T15:49:33.063Z,17.43
2023-05-19T15:51:59.582Z,17.39
2023-05-19T15:54:26.164Z,17.30
2023-05-19T15:56:52.613Z,17.19
2023-05-19T15:59:19.212Z,17.11
2023-05-19T16:01:46.010Z,16.95
2023-05-19T16:04:13.180Z,17.05
2023-05-19T16:06:39.816Z,17.12
2023-05-19T16:09:06.326Z,17.03
2023-05-19T16:11:32.774Z,16.99
2023-05-19T16:13:59.233Z,17.03
2023-05-19T16:16:25.800Z,17.03
2023-05-19T16:18:52.364Z,16.98
2023-05-19T16:21:18.833Z,16.93
2023-05-19T16:23:45.513Z,16.87
2023-05-19T16:26:11.978Z,16.82
2023-05-19T16:28:38.504Z,16.84
2023-05-19T16:31:05.307Z,16.72
2023-05-19T16:33:31.809Z,16.80
2023-05-19T16:35:59.858Z,16.66
2023-05-19T16:38:26.798Z,16.49
2023-05-19T16:40:53.347Z,16.45
2023-05-19T16:43:19.819Z,16.34
2023-05-19T16:45:46.335Z,16.35
2023-05-19T16:48:12.948Z,16.29
2023-05-19T16:50:39.792Z,15.94
2023-05-19T16:53:06.377Z,16.06
2023-05-19T16:55:32.796Z,16.04
2023-05-19T16:57:59.455Z,16.09
2023-05-19T17:00:27.272Z,16.07
2023-05-19T17:02:53.804Z,16.01
2023-05-19T17:05:20.491Z,16.11
2023-05-19T17:07:47.001Z,16.05
2023-05-19T17:10:14.361Z,16.02
2023-05-19T17:12:40.848Z,16.03
2023-05-19T17:15:07.890Z,15.87
2023-05-19T17:17:34.408Z,16.02
2023-05-19T17:20:01.353Z,15.97
2023-05-19T17:22:29.999Z,15.95
2023-05-19T17:24:57.386Z,15.88
2023-05-19T17:27:23.928Z,15.83
2023-05-19T17:29:50.491Z,16.04
2023-05-19T17:32:17.089Z,15.84
2023-05-19T17:34:43.567Z,15.94
2023-05-19T17:37:10.088Z,15.97
2023-05-19T17:39:36.541Z,15.91
2023-05-19T17:42:03.066Z,15.42
2023-05-19T17:44:29.603Z,15.90
2023-05-19T17:46:56.437Z,15.82
2023-05-19T17:49:24.334Z,15.81
2023-05-19T17:51:51.134Z,15.72
2023-05-19T17:54:17.810Z,15.77
2023-05-19T17:56:45.457Z,15.78
2023-05-19T17:59:12.207Z,15.75
2023-05-19T18:01:39.010Z,15.73
2023-05-19T18:04:06.018Z,15.70
2023-05-19T18:06:32.942Z,15.62
2023-05-19T18:09:01.150Z,15.67
2023-05-19T18:11:27.959Z,15.56
2023-05-19T18:13:54.532Z,15.49
2023-05-19T18:16:21.063Z,15.55
2023-05-19T18:18:50.264Z,15.51
2023-05-19T18:21:18.015Z,15.44
2023-05-19T18:23:45.409Z,15.30
2023-05-19T18:26:15.285Z,15.41
2023-05-19T18:28:42.002Z,15.21
2023-05-19T18:31:09.231Z,15.18
2023-05-19T18:33:35.777Z,15.18
2023-05-19T18:36:02.435Z,14.92
2023-05-19T18:38:28.925Z,14.94
2023-05-19T18:40:56.968Z,14.81
2023-05-19T18:43:23.550Z,14.90
2023-05-19T18:45:50.139Z,14.82
2023-05-19T18:48:16.662Z,14.49
2023-05-19T18:50:44.606Z,14.66
2023-05-19T18:53:11.790Z,14.37
2023-05-19T18:55:38.623Z,14.42
2023-05-19T18:58:06.064Z,14.28
2023-05-19T19:00:33.184Z,14.40
2023-05-19T19:03:00.029Z,14.34
2023-05-19T19:05:26.597Z,13.98
2023-05-19T19:07:53.327Z,14.01
2023-05-19T19:10:19.978Z,13.90
2023-05-19T19:12:46.515Z,13.79
2023-05-19T19:15:13.188Z,13.77
2023-05-19T19:17:42.496Z,13.62
2023-05-19T19:20:09.570Z,13.78
2023-05-19T19:22:36.259Z,13.67
2023-05-19T19:25:03.099Z,13.58
2023-05-19T19:27:31.221Z,13.66
2023-05-19T19:29:58.670Z,13.44
2023-05-19T19:32:25.642Z,13.59
2023-05-19T19:34:53.277Z,13.47
2023-05-19T19:37:19.883Z,13.38
2023-05-19T19:39:46.624Z,13.30
2023-05-19T19:42:13.421Z,13.08
2023-05-19T19:44:39.981Z,13.21
2023-05-19T19:47:06.474Z,13.19
2023-05-19T19:49:33.600Z,13.04
2023-05-19T19:52:00.144Z,13.02
2023-05-19T19:54:26.748Z,13.02
2023-05-19T19:56:53.309Z,12.87
2023-05-19T19:59:19.801Z,13.10
2023-05-19T20:01:46.346Z,12.95
2023-05-19T20:04:12.932Z,12.91
2023-05-19T20:06:39.800Z,12.61
2023-05-19T20:09:06.737Z,12.54
2023-05-19T20:11:33.224Z,12.72
2023-05-19T20:13:59.686Z,12.43
2023-05-19T20:16:26.381Z,12.31
2023-05-19T20:18:53.038Z,12.34
2023-05-19T20:21:19.568Z,12.14
2023-05-19T20:23:46.138Z,12.05
2023-05-19T20:26:13.656Z,11.91
2023-05-19T20:28:40.464Z,11.84
2023-05-19T20:31:07.319Z,11.75
2023-05-19T20:33:34.026Z,11.64
2023-05-19T20:36:00.748Z,11.76
2023-05-19T20:38:27.335Z,11.56
2023-05-19T20:40:54.524Z,11.57
2023-05-19T20:43:21.263Z,11.60
2023-05-19T20:45:48.039Z,11.65
2023-05-19T20:48:15.934Z,11.51
2023-05-19T20:50:42.655Z,11.50
2023-05-19T20:53:09.174Z,11.34
2023-05-19T20:55:38.548Z,11.09
2023-05-19T20:58:05.307Z,10.76
2023-05-19T21:00:32.198Z,10.54
2023-05-19T21:02:59.177Z,10.61
2023-05-19T21:05:25.795Z,10.69
2023-05-19T21:07:52.228Z,10.72
2023-05-19T21:10:18.841Z,10.43
2023-05-19T21:12:46.264Z,10.44
2023-05-19T21:15:13.078Z,10.44
2023-05-19T21:17:39.692Z,10.48
2023-05-19T21:20:06.680Z,10.54
2023-05-19T21:22:35.509Z,10.59
2023-05-19T21:25:02.108Z,10.71
2023-05-19T21:27:28.639Z,10.72
2023-05-19T21:29:55.204Z,10.59
2023-05-19T21:32:21.868Z,10.86
2023-05-19T21:34:48.376Z,10.64
2023-05-19T21:37:17.119Z,10.42
2023-05-19T21:39:43.970Z,10.33
2023-05-19T21:42:10.442Z,10.59
2023-05-19T21:44:36.991Z,10.88
2023-05-19T21:47:03.562Z,10.61
2023-05-19T21:49:30.064Z,10.68
2023-05-19T21:51:56.716Z,10.70
2023-05-19T21:54:23.186Z,10.36
2023-05-19T21:56:49.620Z,10.57
2023-05-19T21:59:16.090Z,10.85
2023-05-19T22:01:42.687Z,10.53
2023-05-19T22:04:09.674Z,10.34
2023-05-19T22:06:36.370Z,10.18
2023-05-19T22:09:03.077Z,10.22
2023-05-19T22:11:29.601Z,10.24
2023-05-19T22:13:56.323Z,10.51
2023-05-19T22:16:22.907Z,10.19
2023-05-19T22:18:49.421Z,10.22
2023-05-19T22:21:16.068Z,10.14
2023-05-19T22:23:42.551Z,10.32
2023-05-19T22:26:09.089Z,10.29
2023-05-19T22:28:35.583Z,10.30
2023-05-19T22:31:02.303Z,10.18
2023-05-19T22:33:28.764Z,9.82
2023-05-19T22:35:55.468Z,9.91
2023-05-19T22:38:21.988Z,10.00
2023-05-19T22:40:49.581Z,10.13
2023-05-19T22:43:16.132Z,9.91
2023-05-19T22:45:42.777Z,10.12
2023-05-19T22:48:09.266Z,9.96
2023-05-19T22:50:35.905Z,9.82
2023-05-19T22:53:02.379Z,9.64
2023-05-19T22:55:29.083Z,9.83
2023-05-19T22:57:55.899Z,9.73
2023-05-19T23:00:22.563Z,9.87
2023-05-19T23:02:49.213Z,9.72
2023-05-19T23:05:15.802Z,9.49
2023-05-19T23:07:42.318Z,9.54
2023-05-19T23:10:09.126Z,9.59
2023-05-19T23:12:35.665Z,9.40
2023-05-19T23:15:02.688Z,9.53
2023-05-19T23:17:29.275Z,9.26
2023-05-19T23:19:55.909Z,9.25
2023-05-19T23:22:22.432Z,9.34
2023-05-19T23:24:48.952Z,9.46
2023-05-19T23:27:15.488Z,9.17
2023-05-19T23:29:41.951Z,9.16
2023-05-19T23:32:08.368Z,9.30
2023-05-19T23:34:34.893Z,9.29
2023-05-19T23:37:01.446Z,9.30
2023-05-19T23:39:27.875Z,9.59
2023-05-19T23:41:54.326Z,9.26
2023-05-19T23:44:20.890Z,8.90
2023-05-19T23:46:47.385Z,9.14
2023-05-19T23:49:14.432Z,8.81
2023-05-19T23:51:40.917Z,8.72
2023-05-19T23:54:07.384Z,8.82
2023-05-19T23:56:33.825Z,8.78
2023-05-19T23:59:00.703Z,9.17
